createdAt,value
2024-01-05T00:00:09.819Z,128.77
2024-01-05T00:01:09.909Z,128.36
2024-01-05T00:02:11.564Z,127.02
2024-01-05T00:03:09.961Z,129.10
2024-01-05T00:04:10.087Z,129.38
2024-01-05T00:05:09.953Z,130.35
2024-01-05T00:06:10.110Z,129.03
2024-01-05T00:07:10.125Z,129.00
2024-01-05T00:08:10.082Z,127.95
2024-01-05T00:09:10.154Z,129.83
2024-01-05T00:10:10.213Z,129.86
2024-01-05T00:11:10.201Z,129.78
2024-01-05T00:12:10.319Z,129.28
2024-01-05T00:13:10.317Z,127.80
2024-01-05T00:14:10.371Z,128.35
2024-01-05T00:15:10.775Z,129.08
2024-01-05T00:16:10.442Z,129.32
2024-01-05T00:17:11.197Z,130.95
2024-01-05T00:18:10.700Z,129.94
2024-01-05T00:19:10.753Z,130.36
2024-01-05T00:20:10.767Z,129.57
2024-01-05T00:21:10.703Z,128.90
2024-01-05T00:22:10.657Z,128.27
2024-01-05T00:23:10.801Z,129.97
2024-01-05T00:24:10.809Z,129.88
2024-01-05T00:25:10.793Z,129.08
2024-01-05T00:26:10.809Z,129.68
2024-01-05T00:27:10.841Z,130.99
2024-01-05T00:28:10.845Z,130.62
2024-01-05T00:29:10.882Z,132.81
2024-01-05T00:30:10.981Z,132.90
2024-01-05T00:31:10.981Z,132.90
2024-01-05T00:32:10.973Z,132.93
2024-01-05T00:33:11.164Z,131.56
2024-01-05T00:34:11.105Z,131.37
2024-01-05T00:35:11.084Z,130.65
2024-01-05T00:36:11.124Z,130.44
2024-01-05T00:37:11.114Z,129.99
2024-01-05T00:38:11.206Z,130.12
2024-01-05T00:39:11.226Z,129.79
2024-01-05T00:40:11.309Z,127.01
2024-01-05T00:41:11.353Z,127.32
2024-01-05T00:42:11.512Z,127.42
2024-01-05T00:43:11.668Z,128.24
2024-01-05T00:44:11.640Z,129.51
2024-01-05T00:45:11.727Z,129.05
2024-01-05T00:46:11.756Z,128.68
2024-01-05T00:47:11.793Z,126.07
2024-01-05T00:48:11.971Z,124.91
2024-01-05T00:49:12.055Z,125.33
2024-01-05T00:50:12.138Z,124.80
2024-01-05T00:51:12.224Z,123.99
2024-01-05T00:52:12.252Z,123.67
2024-01-05T00:53:12.356Z,123.86
2024-01-05T00:54:12.477Z,124.78
2024-01-05T00:55:12.562Z,125.54
2024-01-05T00:56:12.568Z,124.98
2024-01-05T00:57:12.688Z,126.22
2024-01-05T00:58:12.769Z,127.07
2024-01-05T00:59:12.816Z,127.13
2024-01-05T01:00:12.949Z,125.81
2024-01-05T01:01:13.115Z,126.28
2024-01-05T01:02:13.106Z,128.71
2024-01-05T01:03:13.298Z,130.09
2024-01-05T01:04:13.454Z,130.18
2024-01-05T01:05:13.345Z,130.26
2024-01-05T01:06:13.411Z,128.42
2024-01-05T01:07:14.375Z,126.32
2024-01-05T01:08:13.481Z,124.72
2024-01-05T01:09:13.514Z,124.88
2024-01-05T01:10:13.473Z,122.69
2024-01-05T01:11:13.557Z,122.59
2024-01-05T01:12:13.550Z,123.38
2024-01-05T01:13:13.639Z,122.85
2024-01-05T01:14:13.611Z,122.91
2024-01-05T01:15:13.775Z,122.89
2024-01-05T01:16:13.751Z,120.87
2024-01-05T01:17:13.782Z,119.73
2024-01-05T01:18:14.588Z,117.99
2024-01-05T01:19:13.967Z,117.10
2024-01-05T01:20:13.860Z,116.46
2024-01-05T01:21:14.025Z,114.75
2024-01-05T01:22:14.044Z,115.96
2024-01-05T01:23:14.113Z,115.38
2024-01-05T01:24:14.270Z,114.24
2024-01-05T01:25:14.312Z,113.63
2024-01-05T01:26:14.413Z,113.99
2024-01-05T01:27:14.590Z,114.31
2024-01-05T01:28:14.655Z,115.20
2024-01-05T01:29:14.740Z,114.37
2024-01-05T01:30:15.086Z,113.90
2024-01-05T01:31:14.975Z,113.10
2024-01-05T01:32:15.066Z,113.67
2024-01-05T01:33:15.190Z,112.66
2024-01-05T01:34:15.311Z,112.96
2024-01-05T01:35:15.306Z,112.48
2024-01-05T01:36:15.409Z,113.25
2024-01-05T01:37:15.424Z,113.39
2024-01-05T01:38:15.462Z,113.54
2024-01-05T01:39:15.469Z,113.24
2024-01-05T01:40:15.513Z,113.21
2024-01-05T01:41:15.519Z,113.55
2024-01-05T01:42:15.647Z,111.51
2024-01-05T01:43:15.671Z,111.77
2024-01-05T01:44:15.655Z,111.21
2024-01-05T01:45:15.710Z,111.09
2024-01-05T01:46:15.687Z,111.61
2024-01-05T01:47:15.721Z,110.46
2024-01-05T01:48:15.909Z,112.04
2024-01-05T01:49:15.934Z,111.70
2024-01-05T01:50:15.902Z,111.01
2024-01-05T01:51:16.023Z,109.19
2024-01-05T01:52:16.069Z,109.09
2024-01-05T01:53:16.230Z,108.71
2024-01-05T01:54:16.264Z,108.05
2024-01-05T01:55:16.298Z,106.07
2024-01-05T01:56:16.521Z,106.72
2024-01-05T01:57:16.515Z,106.24
2024-01-05T01:58:16.578Z,105.37
2024-01-05T01:59:16.602Z,105.18
2024-01-05T02:00:16.759Z,103.91
2024-01-05T02:01:16.806Z,102.53
2024-01-05T02:02:16.801Z,100.93
2024-01-05T02:03:16.924Z,99.57
2024-01-05T02:04:17.076Z,101.52
2024-01-05T02:05:17.064Z,101.67
2024-01-05T02:06:17.079Z,101.63
2024-01-05T02:07:17.119Z,101.69
2024-01-05T02:08:17.170Z,101.81
2024-01-05T02:09:17.228Z,101.91
2024-01-05T02:10:17.208Z,101.77
2024-01-05T02:11:17.304Z,101.96
2024-01-05T02:12:17.401Z,101.68
2024-01-05T02:13:17.413Z,101.42
2024-01-05T02:14:17.464Z,101.85
2024-01-05T02:15:17.483Z,101.20
2024-01-05T02:16:17.631Z,101.25
2024-01-05T02:17:17.601Z,100.86
2024-01-05T02:18:17.830Z,101.20
2024-01-05T02:19:17.799Z,100.04
2024-01-05T02:20:17.780Z,99.47
2024-01-05T02:21:17.831Z,98.98
2024-01-05T02:22:17.837Z,98.91
2024-01-05T02:23:17.890Z,99.59
2024-01-05T02:24:17.988Z,100.71
2024-01-05T02:25:18.009Z,102.37
2024-01-05T02:26:18.160Z,103.23
2024-01-05T02:27:18.137Z,102.66
2024-01-05T02:28:18.327Z,100.39
2024-01-05T02:29:18.339Z,97.67
2024-01-05T02:30:18.410Z,97.69
2024-01-05T02:31:18.400Z,95.96
2024-01-05T02:32:18.451Z,95.28
2024-01-05T02:33:18.655Z,94.34
2024-01-05T02:34:18.744Z,91.87
2024-01-05T02:35:18.577Z,90.28
2024-01-05T02:36:18.607Z,91.52
2024-01-05T02:37:18.632Z,88.49
2024-01-05T02:38:18.634Z,86.39
2024-01-05T02:39:18.738Z,82.84
2024-01-05T02:40:18.822Z,80.95
2024-01-05T02:41:18.959Z,80.16
2024-01-05T02:42:19.114Z,77.67
2024-01-05T02:43:19.152Z,78.96
2024-01-05T02:44:19.266Z,81.51
2024-01-05T02:45:20.211Z,79.43
2024-01-05T02:46:19.497Z,78.60
2024-01-05T02:47:19.551Z,79.08
2024-01-05T02:48:19.724Z,81.04
2024-01-05T02:49:19.769Z,81.63
2024-01-05T02:50:20.672Z,83.78
2024-01-05T02:51:19.833Z,83.55
2024-01-05T02:52:19.824Z,85.61
2024-01-05T02:53:19.860Z,85.72
2024-01-05T02:54:19.977Z,86.13
2024-01-05T02:55:19.943Z,86.61
2024-01-05T02:56:20.051Z,86.50
2024-01-05T02:57:20.078Z,85.71
2024-01-05T02:58:20.072Z,86.41
2024-01-05T02:59:20.170Z,87.42
2024-01-05T03:00:20.250Z,88.79
2024-01-05T03:01:20.252Z,91.13
2024-01-05T03:02:20.296Z,89.44
2024-01-05T03:03:20.469Z,85.74
2024-01-05T03:04:20.550Z,85.62
2024-01-05T03:05:20.644Z,85.24
2024-01-05T03:06:20.837Z,86.47
2024-01-05T03:07:20.750Z,88.11
2024-01-05T03:08:20.878Z,87.52
2024-01-05T03:09:21.120Z,88.06
2024-01-05T03:10:21.066Z,93.24
2024-01-05T03:11:21.210Z,90.17
2024-01-05T03:12:21.343Z,87.57
2024-01-05T03:13:21.409Z,84.48
2024-01-05T03:14:21.434Z,82.05
2024-01-05T03:15:21.688Z,79.61
2024-01-05T03:16:21.639Z,80.30
2024-01-05T03:17:21.834Z,83.10
2024-01-05T03:18:21.968Z,85.99
2024-01-05T03:19:22.067Z,86.15
2024-01-05T03:20:22.168Z,83.58
2024-01-05T03:21:22.195Z,80.95
2024-01-05T03:22:22.263Z,82.03
2024-01-05T03:23:22.398Z,83.89
2024-01-05T03:24:22.670Z,81.73
2024-01-05T03:25:22.803Z,81.83
2024-01-05T03:26:22.524Z,82.11
2024-01-05T03:27:22.664Z,82.75
2024-01-05T03:28:22.647Z,84.11
2024-01-05T03:29:22.651Z,85.20
2024-01-05T03:30:22.798Z,85.38
2024-01-05T03:31:22.809Z,85.11
2024-01-05T03:32:22.880Z,84.53
2024-01-05T03:33:23.098Z,86.91
2024-01-05T03:34:23.165Z,87.89
2024-01-05T03:35:23.188Z,88.90
2024-01-05T03:36:23.222Z,85.44
2024-01-05T03:37:23.290Z,84.11
2024-01-05T03:38:23.508Z,81.69
2024-01-05T03:39:23.451Z,80.76
2024-01-05T03:40:23.526Z,83.58
2024-01-05T03:41:23.830Z,82.92
2024-01-05T03:42:23.697Z,82.94
2024-01-05T03:43:24.383Z,82.38
2024-01-05T03:44:23.798Z,82.42
2024-01-05T03:45:24.015Z,82.53
2024-01-05T03:46:24.001Z,81.33
2024-01-05T03:47:24.101Z,79.98
2024-01-05T03:48:24.279Z,79.73
2024-01-05T03:49:24.363Z,79.79
2024-01-05T03:50:24.388Z,79.76
2024-01-05T03:51:24.546Z,81.20
2024-01-05T03:52:24.641Z,80.24
2024-01-05T03:53:24.736Z,81.40
2024-01-05T03:54:24.811Z,80.92
2024-01-05T03:55:24.985Z,81.59
2024-01-05T03:56:24.978Z,80.93
2024-01-05T03:57:25.145Z,79.40
2024-01-05T03:58:25.119Z,77.27
2024-01-05T03:59:25.191Z,75.65
2024-01-05T04:00:25.250Z,76.54
2024-01-05T04:01:25.444Z,77.54
2024-01-05T04:02:25.461Z,79.85
2024-01-05T04:03:25.599Z,80.00
2024-01-05T04:04:25.603Z,80.57
2024-01-05T04:05:25.621Z,81.76
2024-01-05T04:06:25.665Z,82.69
2024-01-05T04:07:25.698Z,81.85
2024-01-05T04:08:25.681Z,80.01
2024-01-05T04:09:25.805Z,80.46
2024-01-05T04:10:25.810Z,81.04
2024-01-05T04:11:25.827Z,80.94
2024-01-05T04:12:25.936Z,81.27
2024-01-05T04:13:26.019Z,80.74
2024-01-05T04:14:26.096Z,81.04
2024-01-05T04:15:26.027Z,81.10
2024-01-05T04:16:26.039Z,81.62
2024-01-05T04:17:26.225Z,81.78
2024-01-05T04:18:26.362Z,81.91
2024-01-05T04:19:26.472Z,84.90
2024-01-05T04:20:26.438Z,86.81
2024-01-05T04:21:26.627Z,86.52
2024-01-05T04:22:26.691Z,84.12
2024-01-05T04:23:26.828Z,81.08
2024-01-05T04:24:26.830Z,80.23
2024-01-05T04:25:26.941Z,80.74
2024-01-05T04:26:27.090Z,80.21
2024-01-05T04:27:27.097Z,80.29
2024-01-05T04:28:27.160Z,80.06
2024-01-05T04:29:27.172Z,77.61
2024-01-05T04:30:27.308Z,78.51
2024-01-05T04:31:27.315Z,78.59
2024-01-05T04:32:27.367Z,78.77
2024-01-05T04:33:27.488Z,79.60
2024-01-05T04:34:27.726Z,79.93
2024-01-05T04:35:27.518Z,77.17
2024-01-05T04:36:27.653Z,76.13
2024-01-05T04:37:27.619Z,76.69
2024-01-05T04:38:27.808Z,77.21
2024-01-05T04:39:27.793Z,78.52
2024-01-05T04:40:27.727Z,77.24
2024-01-05T04:41:27.767Z,75.53
2024-01-05T04:42:28.416Z,71.62
2024-01-05T04:43:27.877Z,70.43
2024-01-05T04:44:27.867Z,71.38
2024-01-05T04:45:28.364Z,72.50
2024-01-05T04:46:27.978Z,72.57
2024-01-05T04:47:28.174Z,71.29
2024-01-05T04:48:28.192Z,70.99
2024-01-05T04:49:28.316Z,74.30
2024-01-05T04:50:28.209Z,75.71
2024-01-05T04:51:28.316Z,76.45
2024-01-05T04:52:28.278Z,73.90
2024-01-05T04:53:28.462Z,75.38
2024-01-05T04:54:28.439Z,74.04
2024-01-05T04:55:28.446Z,73.15
2024-01-05T04:56:28.543Z,74.45
2024-01-05T04:57:36.245Z,50.00
2024-01-05T04:58:36.124Z,50.00
2024-01-05T04:59:36.077Z,50.00
2024-01-05T05:00:36.242Z,50.00
2024-01-05T05:01:36.159Z,50.00
2024-01-05T05:02:36.123Z,50.00
2024-01-05T05:03:36.307Z,50.66
2024-01-05T05:04:36.067Z,48.47
2024-01-05T05:05:36.093Z,51.06
2024-01-05T05:06:36.139Z,50.33
2024-01-05T05:07:36.588Z,50.50
2024-01-05T05:08:36.094Z,50.84
2024-01-05T05:09:36.075Z,49.71
2024-01-05T05:10:36.033Z,38.05
2024-01-05T05:11:35.990Z,38.30
2024-01-05T05:12:36.107Z,51.60
2024-01-05T05:13:36.030Z,57.50
2024-01-05T05:14:35.945Z,61.68
2024-01-05T05:15:35.995Z,62.93
2024-01-05T05:16:36.062Z,62.98
2024-01-05T05:17:36.016Z,61.80
2024-01-05T05:18:36.187Z,49.43
2024-01-05T05:19:36.023Z,48.75
2024-01-05T05:20:35.997Z,51.27
2024-01-05T05:21:35.959Z,67.08
2024-01-05T05:22:35.936Z,67.18
2024-01-05T05:23:35.916Z,61.91
2024-01-05T05:24:35.991Z,61.55
2024-01-05T05:25:35.852Z,60.47
2024-01-05T05:26:35.832Z,62.01
2024-01-05T05:27:36.004Z,67.16
2024-01-05T05:28:35.846Z,67.93
2024-01-05T05:29:35.739Z,68.13
2024-01-05T05:30:35.790Z,70.76
2024-01-05T05:31:35.792Z,71.88
2024-01-05T05:32:35.679Z,67.23
2024-01-05T05:33:35.814Z,67.59
2024-01-05T05:34:35.811Z,64.69
2024-01-05T05:35:35.590Z,61.76
2024-01-05T05:36:35.616Z,56.66
2024-01-05T05:37:35.620Z,51.95
2024-01-05T05:38:35.568Z,54.30
2024-01-05T05:39:35.646Z,54.50
2024-01-05T05:40:35.504Z,54.38
2024-01-05T05:41:35.536Z,45.30
2024-01-05T05:42:35.561Z,43.44
2024-01-05T05:43:35.495Z,47.06
2024-01-05T05:44:35.550Z,56.34
2024-01-05T05:45:35.516Z,63.78
2024-01-05T05:46:35.395Z,66.23
2024-01-05T05:47:35.526Z,67.30
2024-01-05T05:48:35.424Z,63.35
2024-01-05T05:49:35.498Z,61.81
2024-01-05T05:50:35.358Z,53.89
2024-01-05T05:51:35.316Z,53.50
2024-01-05T05:52:35.274Z,57.08
2024-01-05T05:53:35.249Z,61.95
2024-01-05T05:54:35.292Z,64.46
2024-01-05T05:55:35.239Z,66.80
2024-01-05T05:56:35.312Z,62.84
2024-01-05T05:57:35.351Z,55.99
2024-01-05T05:58:36.075Z,51.02
2024-01-05T05:59:35.343Z,51.45
2024-01-05T06:00:35.647Z,58.74
2024-01-05T06:01:58.508Z,56.71
2024-01-05T06:02:35.576Z,57.18
2024-01-05T06:03:35.574Z,58.59
2024-01-05T06:04:35.500Z,61.24
2024-01-05T06:05:35.430Z,61.44
2024-01-05T06:06:35.576Z,62.28
2024-01-05T06:07:35.400Z,57.52
2024-01-05T06:08:35.395Z,55.72
2024-01-05T06:09:35.464Z,53.00
2024-01-05T06:10:35.320Z,55.91
2024-01-05T06:11:35.330Z,56.10
2024-01-05T06:12:35.267Z,57.31
2024-01-05T06:13:36.694Z,72.41
2024-01-05T06:14:35.276Z,92.73
2024-01-05T06:15:35.356Z,111.65
2024-01-05T06:16:35.174Z,107.95
2024-01-05T06:17:35.238Z,90.83
2024-01-05T06:18:35.241Z,89.66
2024-01-05T06:19:35.356Z,90.07
2024-01-05T06:20:35.110Z,87.90
2024-01-05T06:21:35.167Z,84.12
2024-01-05T06:22:35.268Z,84.41
2024-01-05T06:23:35.094Z,83.79
2024-01-05T06:24:35.283Z,78.99
2024-01-05T06:25:35.019Z,79.18
2024-01-05T06:26:35.034Z,79.57
2024-01-05T06:27:38.990Z,81.55
2024-01-05T06:28:35.957Z,79.44
2024-01-05T06:29:35.072Z,80.23
2024-01-05T06:30:34.839Z,78.56
2024-01-05T06:31:34.855Z,75.18
2024-01-05T06:32:34.787Z,73.09
2024-01-05T06:33:35.045Z,66.95
2024-01-05T06:34:34.991Z,64.79
2024-01-05T06:35:34.823Z,58.95
2024-01-05T06:36:34.862Z,47.49
2024-01-05T06:37:34.797Z,46.09
2024-01-05T06:38:34.819Z,23.70
2024-01-05T06:39:34.883Z,1.42
2024-01-05T06:40:34.886Z,0.00
2024-01-05T06:41:34.812Z,0.00
2024-01-05T06:42:34.892Z,21.41
2024-01-05T06:43:34.765Z,46.79
2024-01-05T06:44:34.745Z,52.75
2024-01-05T06:45:34.844Z,58.69
2024-01-05T06:48:05.737Z,69.91
2024-01-05T06:48:41.582Z,71.38
2024-01-05T06:49:40.802Z,72.28
2024-01-05T06:50:41.088Z,74.25
2024-01-05T06:51:42.149Z,70.18
2024-01-05T06:52:40.501Z,58.12
2024-01-05T06:53:40.468Z,41.86
2024-01-05T06:54:40.948Z,27.41
2024-01-05T06:55:41.149Z,10.83
2024-01-05T06:56:40.634Z,0.00
2024-01-05T06:57:40.376Z,11.28
2024-01-05T06:58:40.244Z,33.57
2024-01-05T06:59:40.176Z,47.26
2024-01-05T07:00:41.331Z,60.94
2024-01-05T07:01:40.052Z,55.90
2024-01-05T07:02:40.507Z,58.32
2024-01-05T07:03:40.037Z,50.00
2024-01-05T07:04:40.041Z,53.76
2024-01-05T07:05:40.138Z,49.85
2024-01-05T07:06:40.012Z,50.01
2024-01-05T07:07:39.991Z,47.75
2024-01-05T07:08:39.822Z,46.65
2024-01-05T07:09:40.235Z,41.77
2024-01-05T07:10:39.897Z,50.00
2024-01-05T07:11:40.219Z,51.99
2024-01-05T07:12:39.976Z,53.69
2024-01-05T07:13:39.937Z,56.29
2024-01-05T07:14:40.503Z,60.39
2024-01-05T07:15:40.479Z,61.65
2024-01-05T07:16:40.055Z,67.96
2024-01-05T07:17:40.189Z,71.94
2024-01-05T07:18:40.076Z,74.60
2024-01-05T07:19:40.144Z,71.90
2024-01-05T07:20:40.075Z,74.81
2024-01-05T07:21:40.184Z,72.74
2024-01-05T07:22:40.817Z,75.48
2024-01-05T07:23:40.211Z,78.51
2024-01-05T07:26:07.337Z,79.72
2024-01-05T07:26:44.622Z,81.36
2024-01-05T07:27:44.628Z,87.32
2024-01-05T07:28:44.666Z,93.75
2024-01-05T07:29:44.636Z,98.04
2024-01-05T07:30:44.670Z,102.18
2024-01-05T07:31:44.954Z,103.06
2024-01-05T07:32:44.684Z,93.35
2024-01-05T07:33:44.701Z,83.12
2024-01-05T07:34:44.623Z,76.06
2024-01-05T07:35:44.616Z,71.97
2024-01-05T07:36:44.621Z,71.70
2024-01-05T07:37:44.615Z,65.58
2024-01-05T07:38:44.634Z,55.74
2024-01-05T07:39:44.645Z,56.34
2024-01-05T07:40:44.653Z,57.73
2024-01-05T07:41:44.867Z,56.46
2024-01-05T07:42:44.700Z,52.86
2024-01-05T07:43:44.748Z,53.54
2024-01-05T07:44:44.866Z,50.08
2024-01-05T07:45:44.888Z,50.51
2024-01-05T07:46:46.843Z,50.77
2024-01-05T07:47:45.045Z,50.00
2024-01-05T07:48:45.162Z,51.42
2024-01-05T07:49:45.396Z,51.74
2024-01-05T07:50:45.219Z,51.34
2024-01-05T07:51:45.688Z,51.49
2024-01-05T07:52:45.213Z,54.69
2024-01-05T07:53:45.313Z,52.54
2024-01-05T07:54:45.369Z,52.20
2024-01-05T07:55:45.327Z,55.96
2024-01-05T07:56:45.336Z,51.89
2024-01-05T07:57:48.340Z,50.00
2024-01-05T07:58:45.362Z,51.98
2024-01-05T07:59:45.379Z,50.49
2024-01-05T08:00:45.603Z,57.56
2024-01-05T08:01:45.543Z,57.46
2024-01-05T08:02:45.311Z,63.20
2024-01-05T08:03:45.366Z,62.27
2024-01-05T08:04:45.305Z,59.50
2024-01-05T08:05:47.538Z,64.30
2024-01-05T08:06:45.676Z,64.82
2024-01-05T08:07:46.227Z,67.55
2024-01-05T08:08:45.644Z,71.83
2024-01-05T08:09:45.723Z,76.15
2024-01-05T08:10:45.750Z,81.49
2024-01-05T08:11:46.098Z,80.92
2024-01-05T08:12:45.888Z,80.84
2024-01-05T08:13:45.985Z,81.66
2024-01-05T08:14:45.990Z,83.74
2024-01-05T08:15:46.014Z,91.02
2024-01-05T08:16:45.958Z,86.79
2024-01-05T08:17:46.083Z,92.41
2024-01-05T08:18:46.069Z,93.44
2024-01-05T08:19:46.100Z,86.72
2024-01-05T08:20:46.699Z,77.35
2024-01-05T08:21:46.633Z,71.99
2024-01-05T08:22:46.097Z,69.42
2024-01-05T08:23:46.178Z,67.17
2024-01-05T08:24:46.218Z,69.11
2024-01-05T08:25:46.280Z,73.69
2024-01-05T08:26:46.289Z,76.15
2024-01-05T08:27:46.380Z,85.55
2024-01-05T08:28:46.419Z,88.15
2024-01-05T08:29:46.350Z,89.78
2024-01-05T08:30:46.528Z,95.79
2024-01-05T08:31:47.044Z,94.40
2024-01-05T08:32:46.557Z,91.86
2024-01-05T08:33:46.749Z,98.95
2024-01-05T08:34:46.744Z,96.15
2024-01-05T08:35:46.640Z,92.37
2024-01-05T08:36:46.647Z,93.55
2024-01-05T08:37:46.634Z,92.86
2024-01-05T08:38:46.659Z,96.81
2024-01-05T08:39:46.740Z,93.37
2024-01-05T08:40:46.663Z,92.78
2024-01-05T08:41:46.662Z,88.88
2024-01-05T08:42:46.752Z,90.65
2024-01-05T08:43:46.737Z,94.29
2024-01-05T08:44:46.892Z,94.67
2024-01-05T08:45:47.006Z,94.65
2024-01-05T08:46:46.904Z,92.31
2024-01-05T08:47:46.878Z,89.76
2024-01-05T08:48:47.000Z,72.36
2024-01-05T08:49:47.392Z,63.75
2024-01-05T08:50:46.733Z,55.46
2024-01-05T08:51:46.794Z,50.15
2024-01-05T08:52:46.863Z,51.37
2024-01-05T08:53:46.871Z,54.36
2024-01-05T08:54:50.259Z,70.42
2024-01-05T08:55:46.872Z,86.27
2024-01-05T08:56:46.871Z,95.29
2024-01-05T08:57:46.830Z,102.99
2024-01-05T08:58:46.809Z,106.85
2024-01-05T08:59:46.800Z,107.37
2024-01-05T09:00:46.764Z,107.43
2024-01-05T09:01:46.754Z,110.18
2024-01-05T09:02:46.764Z,119.39
2024-01-05T09:03:46.775Z,124.85
2024-01-05T09:04:46.761Z,118.87
2024-01-05T09:05:46.608Z,118.03
2024-01-05T09:06:46.621Z,108.90
2024-01-05T09:07:46.591Z,115.81
2024-01-05T09:08:46.567Z,124.86
2024-01-05T09:09:46.630Z,133.93
2024-01-05T09:10:46.587Z,134.60
2024-01-05T09:11:46.588Z,129.09
2024-01-05T09:12:46.526Z,130.80
2024-01-05T09:13:46.483Z,134.65
2024-01-05T09:14:46.510Z,137.60
2024-01-05T09:15:46.514Z,135.95
2024-01-05T09:16:46.407Z,137.59
2024-01-05T09:17:46.458Z,144.41
2024-01-05T09:18:46.506Z,150.21
2024-01-05T09:19:46.402Z,143.53
2024-01-05T09:20:46.436Z,137.20
2024-01-05T09:21:46.473Z,137.25
2024-01-05T09:22:46.347Z,130.38
2024-01-05T09:23:46.360Z,121.46
2024-01-05T09:24:46.315Z,108.17
2024-01-05T09:25:46.772Z,115.34
2024-01-05T09:26:46.184Z,116.92
2024-01-05T09:27:46.262Z,103.63
2024-01-05T09:28:46.089Z,98.09
2024-01-05T09:29:46.098Z,92.87
2024-01-05T09:30:46.104Z,96.23
2024-01-05T09:31:46.072Z,100.35
2024-01-05T09:32:46.033Z,106.72
2024-01-05T09:33:46.059Z,104.51
2024-01-05T09:34:46.111Z,111.99
2024-01-05T09:35:45.824Z,111.92
2024-01-05T09:36:46.018Z,95.70
2024-01-05T09:37:45.937Z,92.49
2024-01-05T09:38:45.955Z,97.93
2024-01-05T09:39:46.008Z,92.33
2024-01-05T09:40:45.857Z,101.20
2024-01-05T09:41:45.871Z,107.31
2024-01-05T09:42:45.943Z,110.31
2024-01-05T09:43:45.886Z,97.39
2024-01-05T09:44:45.897Z,83.45
2024-01-05T09:45:45.920Z,83.55
2024-01-05T09:46:45.714Z,83.66
2024-01-05T09:47:45.862Z,78.76
2024-01-05T09:48:51.393Z,77.42
2024-01-05T09:49:46.999Z,71.60
2024-01-05T09:50:45.653Z,41.76
2024-01-05T09:51:45.591Z,29.58
2024-01-05T09:52:45.548Z,32.46
2024-01-05T09:53:45.453Z,32.64
2024-01-05T09:54:45.498Z,45.04
2024-01-05T09:55:45.470Z,51.29
2024-01-05T09:56:45.368Z,47.52
2024-01-05T09:57:45.448Z,50.00
2024-01-05T09:58:45.325Z,49.63
2024-01-05T09:59:45.279Z,64.34
2024-01-05T10:00:45.433Z,72.57
2024-01-05T10:01:45.304Z,71.08
2024-01-05T10:02:45.227Z,73.03
2024-01-05T10:03:45.375Z,59.96
2024-01-05T10:04:45.491Z,50.17
2024-01-05T10:05:45.259Z,60.37
2024-01-05T10:06:45.278Z,74.48
2024-01-05T10:07:45.283Z,78.12
2024-01-05T10:08:45.153Z,73.97
2024-01-05T10:09:45.287Z,79.61
2024-01-05T10:10:45.314Z,92.42
2024-01-05T10:11:45.176Z,79.62
2024-01-05T10:12:45.106Z,76.74
2024-01-05T10:13:45.063Z,89.05
2024-01-05T10:14:44.982Z,102.37
2024-01-05T10:15:45.054Z,109.53
2024-01-05T10:16:44.904Z,113.78
2024-01-05T10:17:45.067Z,116.57
2024-01-05T10:18:44.919Z,116.95
2024-01-05T10:19:44.977Z,121.51
2024-01-05T10:20:44.709Z,139.97
2024-01-05T10:21:44.831Z,133.20
2024-01-05T10:22:44.736Z,105.68
2024-01-05T10:23:44.759Z,110.82
2024-01-05T10:24:44.743Z,145.46
2024-01-05T10:25:44.534Z,146.42
2024-01-05T10:26:44.554Z,155.98
2024-01-05T10:27:44.611Z,180.95
2024-01-05T10:28:44.454Z,165.87
2024-01-05T10:29:45.246Z,179.93
2024-01-05T10:30:44.483Z,166.99
2024-01-05T10:31:44.414Z,173.15
2024-01-05T10:32:44.393Z,160.72
2024-01-05T10:33:44.444Z,151.79
2024-01-05T10:34:44.469Z,150.31
2024-01-05T10:35:47.127Z,163.07
2024-01-05T10:36:44.170Z,177.15
2024-01-05T10:37:44.161Z,191.12
2024-01-05T10:38:44.004Z,195.25
2024-01-05T10:39:43.920Z,196.72
2024-01-05T10:40:43.919Z,186.41
2024-01-05T10:41:47.587Z,169.02
2024-01-05T10:42:43.797Z,166.00
2024-01-05T10:43:43.746Z,167.54
2024-01-05T10:44:43.643Z,171.25
2024-01-05T10:45:43.692Z,192.73
2024-01-05T10:46:43.432Z,209.78
2024-01-05T10:47:44.993Z,195.67
2024-01-05T10:48:43.382Z,195.79
2024-01-05T10:49:43.337Z,197.20
2024-01-05T10:50:43.177Z,203.37
2024-01-05T10:51:43.153Z,198.70
2024-01-05T10:52:42.980Z,202.12
2024-01-05T10:53:42.994Z,199.55
2024-01-05T10:54:42.939Z,199.69
2024-01-05T10:55:42.883Z,196.38
2024-01-05T10:56:42.799Z,194.05
2024-01-05T10:57:42.786Z,189.61
2024-01-05T10:58:42.630Z,189.11
2024-01-05T10:59:42.639Z,195.95
2024-01-05T11:00:42.680Z,198.41
2024-01-05T11:01:42.530Z,199.11
2024-01-05T11:02:42.996Z,199.35
2024-01-05T11:03:42.383Z,198.22
2024-01-05T11:04:42.319Z,194.20
2024-01-05T11:05:42.485Z,186.14
2024-01-05T11:06:42.219Z,188.51
2024-01-05T11:07:42.829Z,187.49
2024-01-05T11:08:41.972Z,199.24
2024-01-05T11:09:41.997Z,192.21
2024-01-05T11:10:41.860Z,173.34
2024-01-05T11:11:41.755Z,161.68
2024-01-05T11:12:41.812Z,157.74
2024-01-05T11:13:57.806Z,50.00
2024-01-05T11:14:57.939Z,50.00
2024-01-05T11:15:57.889Z,50.00
2024-01-05T11:16:57.798Z,50.00
2024-01-05T11:17:58.030Z,50.00
2024-01-05T11:18:58.102Z,51.07
2024-01-05T11:19:58.070Z,50.00
2024-01-05T11:20:57.944Z,58.50
2024-01-05T11:21:57.926Z,68.33
2024-01-05T11:22:57.954Z,58.40
2024-01-05T11:23:58.000Z,56.90
2024-01-05T11:24:58.109Z,59.39
2024-01-05T11:25:57.966Z,52.48
2024-01-05T11:26:58.008Z,57.40
2024-01-05T11:27:57.980Z,50.00
2024-01-05T11:28:58.060Z,57.96
2024-01-05T11:29:58.011Z,69.33
2024-01-05T11:30:58.065Z,77.14
2024-01-05T11:31:58.013Z,69.12
2024-01-05T11:32:58.025Z,61.68
2024-01-05T11:33:58.209Z,49.69
2024-01-05T11:34:58.070Z,50.68
2024-01-05T11:35:58.057Z,68.76
2024-01-05T11:36:58.027Z,68.03
2024-01-05T11:37:58.037Z,66.85
2024-01-05T11:38:58.708Z,59.25
2024-01-05T11:39:58.067Z,55.09
2024-01-05T11:40:58.055Z,48.37
2024-01-05T11:41:58.114Z,50.00
2024-01-05T11:42:58.075Z,50.12
2024-01-05T11:43:58.077Z,50.30
2024-01-05T11:44:58.269Z,52.62
2024-01-05T11:45:58.095Z,50.00
2024-01-05T11:46:58.074Z,50.64
2024-01-05T11:47:58.180Z,50.48
2024-01-05T11:48:58.257Z,51.78
2024-01-05T11:49:58.166Z,53.85
2024-01-05T11:50:58.185Z,54.26
2024-01-05T11:51:58.139Z,51.76
2024-01-05T11:52:58.154Z,50.00
2024-01-05T11:53:58.144Z,50.00
2024-01-05T11:54:58.243Z,51.89
2024-01-05T11:55:58.058Z,49.93
2024-01-05T11:56:58.084Z,41.15
2024-01-05T11:57:58.781Z,51.98
2024-01-05T11:58:58.102Z,61.78
2024-01-05T11:59:58.613Z,71.91
2024-01-05T12:00:58.155Z,82.70
2024-01-05T12:01:58.112Z,80.00
2024-01-05T12:02:58.124Z,77.52
2024-01-05T12:03:58.170Z,93.48
2024-01-05T12:04:58.257Z,89.21
2024-01-05T12:05:58.225Z,90.50
2024-01-05T12:06:58.142Z,88.75
2024-01-05T12:07:58.242Z,89.59
2024-01-05T12:08:58.288Z,78.45
2024-01-05T12:09:58.260Z,72.36
2024-01-05T12:10:58.237Z,76.22
2024-01-05T12:12:00.253Z,78.80
2024-01-05T12:12:58.183Z,102.01
2024-01-05T12:13:58.286Z,92.73
2024-01-05T12:14:58.333Z,89.72
2024-01-05T12:16:01.735Z,94.81
2024-01-05T12:16:58.200Z,95.03
2024-01-05T12:17:58.324Z,96.42
2024-01-05T12:18:58.384Z,108.61
2024-01-05T12:19:58.325Z,99.62
2024-01-05T12:20:58.282Z,84.95
2024-01-05T12:21:58.225Z,89.39
2024-01-05T12:22:58.274Z,85.62
2024-01-05T12:23:58.385Z,88.15
2024-01-05T12:24:58.257Z,95.76
2024-01-05T12:25:58.191Z,115.95
2024-01-05T12:26:58.202Z,115.27
2024-01-05T12:27:58.178Z,108.16
2024-01-05T12:28:58.206Z,95.04
2024-01-05T12:29:58.330Z,92.23
2024-01-05T12:30:58.312Z,89.09
2024-01-05T12:31:58.104Z,82.60
2024-01-05T12:32:58.179Z,87.14
2024-01-05T12:33:58.251Z,79.14
2024-01-05T12:34:58.140Z,72.09
2024-01-05T12:35:58.213Z,76.54
2024-01-05T12:36:58.184Z,87.78
2024-01-05T12:37:58.125Z,96.50
2024-01-05T12:38:58.055Z,111.38
2024-01-05T12:39:58.067Z,131.84
2024-01-05T12:40:58.065Z,115.60
2024-01-05T12:41:58.122Z,110.57
2024-01-05T12:42:58.156Z,113.15
2024-01-05T12:43:58.179Z,97.74
2024-01-05T12:44:58.233Z,100.76
2024-01-05T12:45:58.190Z,111.19
2024-01-05T12:46:58.110Z,119.11